Time;durP1;ratioP1;P1;durP2;ratioP2;P2;SDS_P1;SDS_P2;PMS_P1;PMS_P2;Temp;Humidity;BMP_temperature;BMP_pressure;BME280_temperature;BME280_humidity;BME280_pressure;Samples;Min_cycle;Max_cycle;Signal;HPM_P1;HPM_P2
2021/07/31 02:52:51;;;;;;;3.60;1.30;;;;;;;;;;10479304;28;20041;-87
2021/07/31 03:50:02;;;;;;;2.65;1.30;;;;;;;;;;10473093;28;20154;-83
2021/07/31 03:55:04;;;;;;;3.33;1.42;;;;;;;;;;10453197;28;20033;-83
2021/07/31 04:00:19;;;;;;;3.67;1.60;;;;;;;;;;10451025;28;20491;-83
2021/07/31 04:05:24;;;;;;;5.13;1.80;;;;;;;;;;10432432;28;20116;-84
2021/07/31 04:10:27;;;;;;;3.97;1.50;;;;;;;;;;10450701;28;20036;-83
2021/07/31 04:15:28;;;;;;;3.72;1.50;;;;;;;;;;10449582;28;20124;-83
2021/07/31 04:26:13;;;;;;;4.60;1.90;;;;;;;;;;10467966;28;20025;-83
2021/07/31 04:37:21;;;;;;;3.97;1.50;;;;;;;;;;10435487;28;20041;-83
2021/07/31 04:42:47;;;;;;;3.92;1.70;;;;;;;;;;10446236;28;20064;-83
2021/07/31 04:48:11;;;;;;;3.35;1.80;;;;;;;;;;10465396;28;20075;-83
2021/07/31 04:53:48;;;;;;;3.78;1.63;;;;;;;;;;10439477;28;20162;-83
2021/07/31 05:10:10;;;;;;;4.22;1.65;;;;;;;;;;10463267;28;20037;-83
2021/07/31 05:15:43;;;;;;;4.55;1.83;;;;;;;;;;10446938;28;20131;-84
2021/07/31 05:20:45;;;;;;;4.75;1.98;;;;;;;;;;10444472;28;20514;-83
2021/07/31 05:31:29;;;;;;;2.88;1.70;;;;;;;;;;10465396;28;20096;-83
2021/07/31 05:36:40;;;;;;;5.50;1.90;;;;;;;;;;10440033;28;20501;-83
2021/07/31 05:42:06;;;;;;;5.90;1.95;;;;;;;;;;10444234;28;20099;-84
2021/07/31 05:47:30;;;;;;;4.68;1.67;;;;;;;;;;10441407;28;20482;-83
2021/07/31 05:52:33;;;;;;;6.07;2.00;;;;;;;;;;10460955;28;20048;-83
2021/07/31 06:03:24;;;;;;;4.68;1.90;;;;;;;;;;10336339;28;20034;-83
2021/07/31 06:08:49;;;;;;;4.40;1.60;;;;;;;;;;10354442;28;20140;-83
2021/07/31 06:14:26;;;;;;;3.42;1.83;;;;;;;;;;10461274;28;20095;-83
2021/07/31 06:19:30;;;;;;;3.08;1.88;;;;;;;;;;10478523;28;20021;-85
2021/07/31 06:24:54;;;;;;;3.40;1.80;;;;;;;;;;10486042;28;20047;-83
2021/07/31 06:29:56;;;;;;;3.70;1.58;;;;;;;;;;10463433;28;20033;-83
2021/07/31 06:35:16;;;;;;;5.70;1.98;;;;;;;;;;10451012;28;20037;-84
2021/07/31 06:40:59;;;;;;;6.55;2.40;;;;;;;;;;10471947;28;20075;-84
2021/07/31 06:52:02;;;;;;;3.95;2.13;;;;;;;;;;10481337;28;20391;-84
2021/07/31 06:57:09;;;;;;;3.13;1.30;;;;;;;;;;10459410;28;20049;-82
2021/07/31 07:02:10;;;;;;;2.63;1.50;;;;;;;;;;10467819;28;20036;-81
2021/07/31 07:07:11;;;;;;;5.22;2.30;;;;;;;;;;10449392;28;20029;-80
2021/07/31 07:12:12;;;;;;;4.13;2.00;;;;;;;;;;10447347;28;20574;-81
2021/07/31 07:17:13;;;;;;;3.70;1.85;;;;;;;;;;10448135;28;20056;-80
2021/07/31 07:22:14;;;;;;;5.13;2.13;;;;;;;;;;10448047;28;20479;-81
2021/07/31 07:27:15;;;;;;;4.57;1.85;;;;;;;;;;10448416;28;20033;-81
2021/07/31 07:32:16;;;;;;;3.78;2.13;;;;;;;;;;10447080;28;20494;-81
2021/07/31 07:37:19;;;;;;;5.18;2.33;;;;;;;;;;10449404;28;20041;-82
2021/07/31 07:42:20;;;;;;;3.80;2.10;;;;;;;;;;10446651;28;20029;-82
2021/07/31 07:47:27;;;;;;;3.20;1.88;;;;;;;;;;10448756;28;20029;-82
2021/07/31 07:53:00;;;;;;;4.00;1.90;;;;;;;;;;10466575;28;20044;-83
2021/07/31 07:58:30;;;;;;;2.80;1.90;;;;;;;;;;10451521;28;20041;-81
2021/07/31 08:03:45;;;;;;;3.25;2.05;;;;;;;;;;10418180;28;20053;-83
2021/07/31 08:09:39;;;;;;;3.78;2.42;;;;;;;;;;10466479;28;20041;-83
2021/07/31 08:15:00;;;;;;;5.80;2.40;;;;;;;;;;10218538;29;20039;-83
2021/07/31 08:25:46;;;;;;;4.53;2.20;;;;;;;;;;10257811;29;20035;-85
2021/07/31 08:30:47;;;;;;;4.10;2.17;;;;;;;;;;10255647;29;20049;-85
2021/07/31 08:35:48;;;;;;;2.83;1.80;;;;;;;;;;10376547;28;20376;-86
2021/07/31 08:40:49;;;;;;;4.10;1.92;;;;;;;;;;10461431;28;20041;-87
2021/07/31 08:45:50;;;;;;;3.78;2.00;;;;;;;;;;10456652;28;20033;-86
2021/07/31 08:50:53;;;;;;;4.82;1.90;;;;;;;;;;10445457;28;20045;-84
2021/07/31 08:55:54;;;;;;;5.07;1.90;;;;;;;;;;10462575;28;20457;-84
2021/07/31 09:00:56;;;;;;;2.83;1.83;;;;;;;;;;10443852;28;20037;-84
2021/07/31 09:05:56;;;;;;;3.03;1.70;;;;;;;;;;10444591;28;20132;-85
2021/07/31 09:11:04;;;;;;;4.88;1.92;;;;;;;;;;10445490;28;20051;-80
2021/07/31 09:16:10;;;;;;;4.80;1.73;;;;;;;;;;10443862;28;20095;-81
2021/07/31 09:21:19;;;;;;;3.72;1.80;;;;;;;;;;10444164;28;20404;-81
2021/07/31 09:26:21;;;;;;;2.65;1.77;;;;;;;;;;10443907;28;20032;-80
2021/07/31 09:31:22;;;;;;;3.65;1.80;;;;;;;;;;10442868;28;20131;-79
2021/07/31 09:36:23;;;;;;;4.50;1.92;;;;;;;;;;10442321;28;20115;-80
2021/07/31 09:41:51;;;;;;;3.00;1.80;;;;;;;;;;10508642;23;20108;-86
2021/07/31 09:47:13;;;;;;;3.25;1.90;;;;;;;;;;10500424;28;20056;-85
2021/07/31 09:52:35;;;;;;;5.05;2.00;;;;;;;;;;10490807;28;20029;-84
2021/07/31 09:57:58;;;;;;;5.55;2.13;;;;;;;;;;10404950;28;20097;-86
2021/07/31 10:09:09;;;;;;;2.97;2.03;;;;;;;;;;10323639;28;20047;-87
2021/07/31 10:30:54;;;;;;;3.65;2.10;;;;;;;;;;10467351;28;20045;-85
2021/07/31 10:36:16;;;;;;;3.25;1.80;;;;;;;;;;10479474;28;20037;-86
2021/07/31 10:47:41;;;;;;;3.22;2.08;;;;;;;;;;10486481;28;20028;-85
2021/07/31 15:26:38;;;;;;;2.13;1.92;;;;;;;;;;10141724;29;20029;-86
2021/07/31 15:31:39;;;;;;;2.30;2.10;;;;;;;;;;10243680;28;20426;-87
2021/07/31 15:36:40;;;;;;;2.78;2.13;;;;;;;;;;10286116;28;20454;-88
2021/07/31 15:41:41;;;;;;;2.10;1.90;;;;;;;;;;10285762;28;20042;-87
2021/07/31 15:46:42;;;;;;;3.03;1.98;;;;;;;;;;10286934;28;20041;-87
2021/07/31 15:51:43;;;;;;;3.55;2.08;;;;;;;;;;10285903;28;20037;-87
2021/07/31 15:56:44;;;;;;;2.72;2.10;;;;;;;;;;10286363;28;20481;-87
2021/07/31 16:01:45;;;;;;;3.42;1.88;;;;;;;;;;10285726;28;20106;-87
2021/07/31 16:06:45;;;;;;;7.70;4.18;;;;;;;;;;10289986;28;20581;-86
2021/07/31 16:11:46;;;;;;;6.15;2.67;;;;;;;;;;10298105;28;20047;-88
2021/07/31 16:16:48;;;;;;;2.72;2.50;;;;;;;;;;10289659;28;20130;-88
2021/07/31 16:21:49;;;;;;;3.10;2.80;;;;;;;;;;10285206;28;20187;-87
2021/07/31 16:26:49;;;;;;;3.22;2.78;;;;;;;;;;10314444;28;20509;-87
2021/07/31 16:31:50;;;;;;;3.10;2.35;;;;;;;;;;10286349;28;20043;-89
2021/07/31 16:36:51;;;;;;;4.28;3.05;;;;;;;;;;10285460;28;20069;-88
2021/07/31 16:41:52;;;;;;;3.90;2.70;;;;;;;;;;10286813;28;20489;-89
2021/07/31 16:46:53;;;;;;;2.97;2.30;;;;;;;;;;10287184;28;20035;-87
2021/07/31 16:51:54;;;;;;;3.80;2.80;;;;;;;;;;10283817;28;20043;-88
2021/07/31 16:56:55;;;;;;;2.85;2.40;;;;;;;;;;10281215;28;20042;-88
2021/07/31 17:01:56;;;;;;;3.28;2.22;;;;;;;;;;10282733;28;20050;-88
2021/07/31 17:06:57;;;;;;;2.65;2.00;;;;;;;;;;10281136;28;20035;-90
2021/07/31 17:11:58;;;;;;;2.60;2.25;;;;;;;;;;10281893;28;20126;-89
2021/07/31 17:16:59;;;;;;;2.83;2.60;;;;;;;;;;10283600;28;20046;-87
2021/07/31 17:22:00;;;;;;;3.33;2.30;;;;;;;;;;10281674;28;20042;-89
2021/07/31 17:27:01;;;;;;;3.50;2.30;;;;;;;;;;10283778;28;20449;-86
2021/07/31 17:32:02;;;;;;;2.33;2.00;;;;;;;;;;10282544;28;20035;-89
2021/07/31 17:37:03;;;;;;;2.78;2.20;;;;;;;;;;10282462;28;20112;-88
2021/07/31 17:42:04;;;;;;;2.85;2.15;;;;;;;;;;10283329;28;20061;-88
2021/07/31 17:47:05;;;;;;;5.35;2.40;;;;;;;;;;10283813;28;20031;-89
2021/07/31 17:52:06;;;;;;;2.28;1.58;;;;;;;;;;10283492;28;20031;-86
2021/07/31 17:57:07;;;;;;;3.55;1.90;;;;;;;;;;10281333;28;20049;-88
2021/07/31 18:02:08;;;;;;;2.92;1.95;;;;;;;;;;10281048;28;20141;-90
2021/07/31 18:07:09;;;;;;;3.55;1.80;;;;;;;;;;10281308;28;20505;-87
2021/07/31 18:12:10;;;;;;;2.25;1.80;;;;;;;;;;10285920;28;20066;-86
2021/07/31 18:17:11;;;;;;;3.03;1.90;;;;;;;;;;10284747;28;20035;-87
2021/07/31 18:22:12;;;;;;;2.80;2.10;;;;;;;;;;10288082;28;20042;-86
2021/07/31 18:27:13;;;;;;;4.10;2.15;;;;;;;;;;10283626;28;20031;-88
2021/07/31 18:32:14;;;;;;;2.92;2.20;;;;;;;;;;10309199;28;20051;-87
2021/07/31 18:37:15;;;;;;;2.25;1.83;;;;;;;;;;10281971;28;20042;-87
2021/07/31 18:42:16;;;;;;;3.83;2.15;;;;;;;;;;10279873;28;20042;-86
2021/07/31 18:47:17;;;;;;;2.58;2.13;;;;;;;;;;10279423;28;20556;-86
2021/07/31 18:52:18;;;;;;;1.90;1.70;;;;;;;;;;10285576;28;20508;-88
2021/07/31 18:57:19;;;;;;;2.85;1.83;;;;;;;;;;10286717;28;20049;-87
2021/07/31 19:02:20;;;;;;;2.20;1.60;;;;;;;;;;10289766;28;20058;-88
2021/07/31 19:07:21;;;;;;;2.85;2.17;;;;;;;;;;10289557;28;20034;-87
2021/07/31 19:12:22;;;;;;;2.40;1.92;;;;;;;;;;10302681;28;20035;-86
2021/07/31 19:17:24;;;;;;;1.70;1.60;;;;;;;;;;10287867;28;20053;-86
2021/07/31 19:22:25;;;;;;;2.55;1.98;;;;;;;;;;10286139;28;20041;-87
2021/07/31 19:27:26;;;;;;;2.70;2.10;;;;;;;;;;10290441;28;20077;-86
2021/07/31 19:32:27;;;;;;;2.83;1.90;;;;;;;;;;10306557;28;20043;-87
2021/07/31 19:37:28;;;;;;;2.60;2.10;;;;;;;;;;10301710;28;20045;-87
2021/07/31 19:42:29;;;;;;;2.33;1.90;;;;;;;;;;10289632;28;20046;-88
2021/07/31 19:47:30;;;;;;;3.00;2.22;;;;;;;;;;10291178;28;20034;-86
2021/07/31 19:52:31;;;;;;;2.65;2.00;;;;;;;;;;10305422;28;20039;-86
2021/07/31 19:57:32;;;;;;;3.42;1.98;;;;;;;;;;10293956;28;20556;-87
2021/07/31 20:02:33;;;;;;;2.85;1.60;;;;;;;;;;10285268;28;20039;-86
2021/07/31 20:07:34;;;;;;;2.67;2.10;;;;;;;;;;10288278;28;20094;-87
2021/07/31 20:12:35;;;;;;;3.40;2.50;;;;;;;;;;10288900;28;20133;-87
2021/07/31 20:17:38;;;;;;;2.67;2.33;;;;;;;;;;10287380;28;20117;-87
2021/07/31 20:22:39;;;;;;;3.22;2.17;;;;;;;;;;10285397;28;20035;-87
2021/07/31 20:27:40;;;;;;;2.85;2.42;;;;;;;;;;10285546;28;20082;-87
2021/07/31 20:32:41;;;;;;;3.22;2.28;;;;;;;;;;10286027;28;20061;-86
2021/07/31 20:37:42;;;;;;;2.45;1.90;;;;;;;;;;10312488;28;20106;-87
2021/07/31 20:42:43;;;;;;;3.10;2.08;;;;;;;;;;10288404;28;20050;-88
2021/07/31 20:47:45;;;;;;;2.50;2.10;;;;;;;;;;10283262;28;20086;-88
2021/07/31 20:52:46;;;;;;;2.75;2.20;;;;;;;;;;10282935;28;20031;-86
2021/07/31 20:57:47;;;;;;;2.17;1.95;;;;;;;;;;10282527;28;20038;-85
2021/07/31 21:02:48;;;;;;;2.75;2.47;;;;;;;;;;10282724;28;20460;-86
2021/07/31 21:07:48;;;;;;;2.13;1.85;;;;;;;;;;10283436;28;20115;-87
2021/07/31 21:12:49;;;;;;;2.42;2.10;;;;;;;;;;10281764;28;20035;-87
2021/07/31 21:17:50;;;;;;;2.33;2.00;;;;;;;;;;10286179;28;20078;-85
2021/07/31 21:22:51;;;;;;;2.90;2.00;;;;;;;;;;10283622;28;20489;-88
2021/07/31 21:27:52;;;;;;;3.05;2.45;;;;;;;;;;10281962;28;20038;-86
2021/07/31 21:32:53;;;;;;;2.75;1.85;;;;;;;;;;10281938;28;20463;-86
2021/07/31 21:37:54;;;;;;;2.08;1.83;;;;;;;;;;10282577;28;20063;-85
2021/07/31 21:42:55;;;;;;;2.25;2.05;;;;;;;;;;10284502;28;20183;-87
2021/07/31 21:47:56;;;;;;;2.78;2.30;;;;;;;;;;10282344;28;20030;-87
2021/07/31 21:52:57;;;;;;;3.60;2.80;;;;;;;;;;10283527;28;20481;-87
2021/07/31 21:57:58;;;;;;;2.20;1.90;;;;;;;;;;10282580;28;20130;-86
2021/07/31 22:03:04;;;;;;;2.42;2.20;;;;;;;;;;10282541;28;20046;-87
2021/07/31 22:08:05;;;;;;;3.80;2.55;;;;;;;;;;10282632;28;20046;-87
2021/07/31 22:13:07;;;;;;;3.35;2.50;;;;;;;;;;10314384;28;20038;-88
2021/07/31 22:18:08;;;;;;;2.97;2.35;;;;;;;;;;10282811;28;20041;-87
2021/07/31 22:23:09;;;;;;;2.70;2.17;;;;;;;;;;10286869;28;20062;-87
2021/07/31 22:28:10;;;;;;;3.20;2.38;;;;;;;;;;10294659;28;20031;-87
2021/07/31 22:33:12;;;;;;;3.00;2.30;;;;;;;;;;10291060;28;20089;-87
2021/07/31 22:38:13;;;;;;;2.92;2.63;;;;;;;;;;10290098;28;20118;-87
2021/07/31 22:43:14;;;;;;;4.03;2.75;;;;;;;;;;10314359;28;20030;-86
2021/07/31 22:48:15;;;;;;;3.10;2.40;;;;;;;;;;10294754;28;20097;-89
2021/07/31 22:53:16;;;;;;;3.70;2.40;;;;;;;;;;10291045;28;20046;-86
2021/07/31 22:58:17;;;;;;;2.78;2.25;;;;;;;;;;10292800;28;20035;-86
2021/07/31 23:03:18;;;;;;;3.05;2.75;;;;;;;;;;10292245;28;20043;-89
2021/07/31 23:08:19;;;;;;;2.58;2.17;;;;;;;;;;10291082;28;20086;-89
2021/07/31 23:13:21;;;;;;;3.15;2.70;;;;;;;;;;10291028;28;20046;-87
2021/07/31 23:18:22;;;;;;;2.97;2.55;;;;;;;;;;10291337;28;20035;-88
2021/07/31 23:23:23;;;;;;;3.38;2.20;;;;;;;;;;10290796;28;20187;-88
2021/07/31 23:28:24;;;;;;;3.97;2.83;;;;;;;;;;10307438;28;20037;-88
2021/07/31 23:33:25;;;;;;;3.83;3.35;;;;;;;;;;10289557;28;20070;-87
2021/07/31 23:38:26;;;;;;;2.40;2.10;;;;;;;;;;10305540;28;20134;-87
2021/07/31 23:43:26;;;;;;;2.50;2.30;;;;;;;;;;10287820;28;20069;-85
2021/07/31 23:48:27;;;;;;;3.78;3.03;;;;;;;;;;10288492;28;20039;-86
2021/07/31 23:53:28;;;;;;;3.28;2.97;;;;;;;;;;10289635;28;20516;-85
2021/07/31 23:58:29;;;;;;;4.25;3.70;;;;;;;;;;10291344;28;20117;-87
